createdAt,value
2016-03-15T00:00:27.436Z,13.7
2016-03-15T00:01:27.453Z,13.32
2016-03-15T00:02:27.456Z,13.8
2016-03-15T00:03:27.474Z,13.61
2016-03-15T00:04:27.462Z,13.81
2016-03-15T00:05:27.480Z,13.9
2016-03-15T00:06:27.483Z,13.51
2016-03-15T00:07:27.490Z,13.9
2016-03-15T00:08:27.493Z,13.9
2016-03-15T00:09:27.496Z,13.9
2016-03-15T00:10:27.513Z,13.7
2016-03-15T00:11:27.502Z,13.9
2016-03-15T00:12:27.519Z,13.51
2016-03-15T00:13:27.522Z,13.6
2016-03-15T00:14:27.540Z,13.7
2016-03-15T00:15:36.543Z,13.7
2016-03-15T00:16:27.562Z,13.12
2016-03-15T00:17:27.549Z,13.41
2016-03-15T00:18:27.551Z,13.7
2016-03-15T00:19:27.554Z,13.12
2016-03-15T00:20:27.572Z,13.51
2016-03-15T00:21:27.575Z,13.7
2016-03-15T00:22:27.578Z,13.12
2016-03-15T00:23:27.580Z,13.12
2016-03-15T00:24:27.599Z,13.12
2016-03-15T00:25:27.601Z,13.12
2016-03-15T00:26:27.603Z,13.12
2016-03-15T00:27:27.622Z,13.12
2016-03-15T00:28:27.625Z,13.22
2016-03-15T00:29:27.628Z,13.12
2016-03-15T00:30:27.631Z,13.12
2016-03-15T00:31:27.649Z,13.22
2016-03-15T00:32:27.652Z,13.12
2016-03-15T00:33:27.655Z,13.22
2016-03-15T00:34:27.657Z,13.22
2016-03-15T00:35:27.676Z,13.13
2016-03-15T00:36:27.679Z,13.12
2016-03-15T00:37:27.697Z,13.22
2016-03-15T00:38:27.684Z,13.02
2016-03-15T00:39:27.702Z,13.22
2016-03-15T00:40:27.689Z,13.12
2016-03-15T00:41:27.692Z,13.02
2016-03-15T00:42:27.726Z,13.02
2016-03-15T00:43:27.714Z,13.22
2016-03-15T00:44:27.716Z,13.13
2016-03-15T00:45:36.766Z,13.22
2016-03-15T00:46:27.736Z,13.6
2016-03-15T00:47:27.739Z,13.32
2016-03-15T00:48:27.773Z,13.61
2016-03-15T00:49:27.745Z,13.02
2016-03-15T00:50:27.764Z,13.6
2016-03-15T00:51:27.766Z,13.6
2016-03-15T00:52:27.785Z,13.12
2016-03-15T00:53:27.787Z,13.7
2016-03-15T00:54:27.790Z,13.12
2016-03-15T00:55:27.793Z,13.22
2016-03-15T00:56:27.801Z,13.02
2016-03-15T00:57:27.803Z,13.12
2016-03-15T00:58:27.821Z,13.22
2016-03-15T00:59:27.808Z,13.51
2016-03-15T01:00:27.826Z,13.12
2016-03-15T01:01:27.828Z,13.12
2016-03-15T01:02:27.848Z,12.93
2016-03-15T01:03:27.834Z,13.32
2016-03-15T01:04:27.853Z,13.32
2016-03-15T01:05:27.870Z,13.22
2016-03-15T01:06:27.858Z,13.02
2016-03-15T01:07:27.892Z,13.12
2016-03-15T01:08:27.879Z,13.22
2016-03-15T01:09:27.881Z,13.02
2016-03-15T01:10:27.884Z,13.12
2016-03-15T01:11:27.903Z,13.6
2016-03-15T01:12:27.889Z,13.12
2016-03-15T01:13:27.924Z,13.22
2016-03-15T01:14:27.927Z,13.7
2016-03-15T01:15:27.913Z,13.8
2016-03-15T01:16:27.932Z,13.12
2016-03-15T01:17:27.935Z,13.12
2016-03-15T01:18:27.937Z,13.8
2016-03-15T01:19:27.955Z,13.6
2016-03-15T01:20:27.958Z,13.9
2016-03-15T01:21:27.961Z,13.02
2016-03-15T01:22:27.963Z,13.7
2016-03-15T01:23:27.982Z,13.12
2016-03-15T01:24:27.985Z,13.22
2016-03-15T01:25:27.987Z,13.12
2016-03-15T01:26:27.990Z,13.22
2016-03-15T01:27:27.993Z,13.41
2016-03-15T01:28:28.026Z,13.9
2016-03-15T01:29:27.998Z,13.12
2016-03-15T01:30:28.017Z,13.41
2016-03-15T01:31:28.019Z,13.32
2016-03-15T01:32:28.037Z,13.32
2016-03-15T01:33:28.025Z,13.12
2016-03-15T01:34:28.042Z,13.22
2016-03-15T01:35:28.046Z,13.41
2016-03-15T01:36:28.048Z,13.32
2016-03-15T01:37:28.050Z,13.22
2016-03-15T01:38:28.070Z,13.22
2016-03-15T01:39:28.103Z,13.12
2016-03-15T01:40:28.074Z,13.12
2016-03-15T01:41:28.093Z,13.02
2016-03-15T01:42:28.080Z,13.12
2016-03-15T01:43:28.083Z,13.12
2016-03-15T01:44:28.116Z,13.12
2016-03-15T01:45:28.103Z,13.51
2016-03-15T01:46:28.121Z,13.51
2016-03-15T01:47:28.125Z,13.12
2016-03-15T01:48:28.127Z,13.7
2016-03-15T01:49:28.129Z,13.12
2016-03-15T01:50:28.149Z,13.22
2016-03-15T01:51:28.151Z,13.02
2016-03-15T01:52:28.154Z,13.32
2016-03-15T01:53:28.172Z,13.22
2016-03-15T01:54:28.159Z,13.22
2016-03-15T01:55:28.177Z,13.22
2016-03-15T01:56:28.180Z,13.22
2016-03-15T01:57:28.182Z,13.32
2016-03-15T01:58:28.185Z,13.51
2016-03-15T01:59:28.188Z,13.41
2016-03-15T02:00:28.207Z,13.32
2016-03-15T02:01:28.209Z,13.41
2016-03-15T02:02:28.227Z,13.41
2016-03-15T02:03:28.215Z,13.02
2016-03-15T02:04:28.233Z,13.12
2016-03-15T02:05:28.236Z,13.12
2016-03-15T02:06:28.238Z,13.12
2016-03-15T02:07:28.241Z,13.32
2016-03-15T02:08:28.100Z,13.12
2016-03-15T02:09:28.262Z,13.12
2016-03-15T02:10:28.264Z,13.32
2016-03-15T02:11:28.267Z,13.12
2016-03-15T02:12:28.286Z,13.42
2016-03-15T02:13:28.303Z,13.41
2016-03-15T02:14:28.291Z,13.32
2016-03-15T02:15:28.309Z,13.41
2016-03-15T02:16:28.296Z,13.41
2016-03-15T02:17:28.314Z,13.02
2016-03-15T02:18:28.317Z,13.41
2016-03-15T02:19:28.336Z,13.22
2016-03-15T02:20:28.323Z,13.12
2016-03-15T02:21:28.357Z,13.12
2016-03-15T02:22:28.344Z,13.32
2016-03-15T02:23:28.346Z,13.02
2016-03-15T02:24:28.365Z,13.12
2016-03-15T02:25:28.383Z,13.22
2016-03-15T02:26:28.370Z,13.22
2016-03-15T02:27:28.373Z,13.12
2016-03-15T02:28:28.375Z,13.51
2016-03-15T02:29:28.393Z,13.22
2016-03-15T02:30:28.396Z,13.32
2016-03-15T02:31:28.398Z,13.12
2016-03-15T02:32:28.401Z,13.41
2016-03-15T02:33:28.404Z,13.12
2016-03-15T02:34:28.423Z,13.22
2016-03-15T02:35:28.426Z,13.41
2016-03-15T02:36:28.429Z,13.32
2016-03-15T02:37:28.447Z,13.02
2016-03-15T02:38:28.450Z,13.41
2016-03-15T02:39:28.452Z,13.51
2016-03-15T02:40:28.455Z,13.12
2016-03-15T02:41:28.457Z,13.32
2016-03-15T02:42:28.475Z,13.12
2016-03-15T02:43:28.478Z,13.13
2016-03-15T02:44:28.480Z,13.41
2016-03-15T02:45:28.484Z,13.22
2016-03-15T02:46:28.486Z,13.22
2016-03-15T02:47:28.505Z,13.12
2016-03-15T02:48:28.508Z,13.02
2016-03-15T02:49:28.525Z,13.02
2016-03-15T02:50:28.513Z,13.12
2016-03-15T02:51:28.530Z,13.02
2016-03-15T02:52:28.533Z,13.12
2016-03-15T02:53:28.536Z,13.02
2016-03-15T02:54:28.555Z,13.41
2016-03-15T02:55:28.558Z,13.02
2016-03-15T02:56:28.576Z,13.02
2016-03-15T02:57:28.563Z,13.02
2016-03-15T02:58:28.581Z,13.22
2016-03-15T02:59:28.568Z,13.12
2016-03-15T03:00:28.587Z,13.02
2016-03-15T03:01:28.589Z,13.02
2016-03-15T03:02:28.592Z,13.02
2016-03-15T03:03:28.594Z,12.45
2016-03-15T03:04:28.628Z,12.45
2016-03-15T03:05:28.615Z,13.22
2016-03-15T03:06:28.618Z,12.45
2016-03-15T03:07:28.620Z,12.64
2016-03-15T03:08:28.640Z,12.84
2016-03-15T03:09:28.642Z,12.45
2016-03-15T03:10:28.645Z,12.93
2016-03-15T03:11:28.663Z,12.84
2016-03-15T03:12:28.666Z,12.84
2016-03-15T03:13:28.669Z,12.64
2016-03-15T03:14:28.671Z,12.74
2016-03-15T03:15:28.674Z,12.74
2016-03-15T03:16:28.676Z,12.45
2016-03-15T03:17:28.694Z,12.65
2016-03-15T03:18:28.682Z,12.74
2016-03-15T03:19:28.699Z,12.74
2016-03-15T03:20:28.766Z,12.84
2016-03-15T03:21:28.719Z,12.74
2016-03-15T03:22:28.737Z,12.64
2016-03-15T03:23:28.724Z,12.45
2016-03-15T03:24:28.727Z,12.45
2016-03-15T03:25:28.730Z,12.74
2016-03-15T03:26:28.747Z,12.74
2016-03-15T03:27:28.750Z,12.84
2016-03-15T03:28:28.768Z,12.45
2016-03-15T03:29:28.755Z,12.54
2016-03-15T03:30:28.774Z,12.84
2016-03-15T03:31:28.777Z,12.93
2016-03-15T03:32:28.779Z,12.74
2016-03-15T03:33:28.797Z,12.74
2016-03-15T03:34:28.785Z,12.54
2016-03-15T03:35:28.646Z,12.84
2016-03-15T03:36:28.806Z,12.26
2016-03-15T03:37:28.824Z,12.74
2016-03-15T03:38:28.811Z,12.74
2016-03-15T03:39:28.829Z,12.74
2016-03-15T03:40:28.832Z,12.45
2016-03-15T03:41:28.834Z,12.84
2016-03-15T03:42:28.837Z,12.45
2016-03-15T03:43:28.855Z,12.64
2016-03-15T03:44:28.858Z,12.84
2016-03-15T03:45:28.861Z,12.64
2016-03-15T03:46:28.880Z,12.74
2016-03-15T03:47:28.866Z,12.74
2016-03-15T03:48:28.869Z,12.64
2016-03-15T03:49:28.888Z,12.74
2016-03-15T03:50:28.905Z,12.64
2016-03-15T03:51:28.893Z,12.93
2016-03-15T03:52:28.911Z,12.74
2016-03-15T03:53:28.914Z,12.64
2016-03-15T03:54:28.916Z,12.64
2016-03-15T03:55:28.919Z,12.54
2016-03-15T03:56:28.937Z,12.64
2016-03-15T03:57:28.941Z,12.64
2016-03-15T03:58:28.943Z,12.54
2016-03-15T03:59:28.945Z,12.64
2016-03-15T04:00:28.996Z,12.64
2016-03-15T04:01:28.966Z,12.64
2016-03-15T04:02:28.969Z,12.35
2016-03-15T04:03:28.972Z,12.74
2016-03-15T04:04:29.021Z,12.64
2016-03-15T04:05:28.977Z,12.74
2016-03-15T04:06:28.995Z,12.54
2016-03-15T04:07:28.998Z,12.74
2016-03-15T04:08:29.000Z,12.74
2016-03-15T04:09:29.020Z,12.35
2016-03-15T04:10:29.022Z,12.64
2016-03-15T04:11:29.025Z,12.64
2016-03-15T04:12:29.028Z,12.84
2016-03-15T04:13:29.045Z,12.64
2016-03-15T04:14:29.048Z,12.64
2016-03-15T04:15:29.036Z,12.64
2016-03-15T04:16:29.053Z,12.45
2016-03-15T04:17:29.056Z,12.64
2016-03-15T04:18:29.059Z,12.64
2016-03-15T04:19:29.061Z,12.74
2016-03-15T04:20:29.081Z,12.64
2016-03-15T04:21:29.072Z,12.74
2016-03-15T04:22:29.090Z,12.45
2016-03-15T04:23:29.093Z,12.74
2016-03-15T04:24:29.127Z,12.84
2016-03-15T04:25:29.114Z,12.64
2016-03-15T04:26:29.116Z,12.64
2016-03-15T04:27:29.119Z,12.74
2016-03-15T04:28:29.121Z,12.64
2016-03-15T04:29:29.125Z,12.64
2016-03-15T04:30:29.143Z,12.84
2016-03-15T04:31:29.176Z,12.84
2016-03-15T04:32:29.149Z,12.64
2016-03-15T04:33:29.167Z,12.74
2016-03-15T04:34:29.170Z,12.74
2016-03-15T04:35:29.177Z,12.84
2016-03-15T04:36:29.179Z,12.93
2016-03-15T04:37:29.181Z,12.64
2016-03-15T04:38:29.185Z,12.54
2016-03-15T04:39:29.187Z,12.84
2016-03-15T04:40:29.205Z,12.54
2016-03-15T04:41:29.208Z,12.74
2016-03-15T04:42:29.226Z,12.84
2016-03-15T04:43:29.213Z,12.84
2016-03-15T04:44:29.232Z,12.64
2016-03-15T04:45:29.218Z,12.84
2016-03-15T04:46:29.237Z,12.74
2016-03-15T04:47:29.240Z,12.84
2016-03-15T04:48:29.242Z,12.64
2016-03-15T04:49:29.261Z,12.16
2016-03-15T04:50:29.263Z,12.06
2016-03-15T04:51:29.265Z,12.26
2016-03-15T04:52:29.269Z,12.93
2016-03-15T04:53:29.287Z,12.54
2016-03-15T04:54:29.273Z,12.54
2016-03-15T04:55:29.292Z,12.54
2016-03-15T04:56:29.311Z,12.45
2016-03-15T04:57:29.297Z,12.45
2016-03-15T04:58:29.317Z,12.06
2016-03-15T04:59:29.319Z,12.74
2016-03-15T05:00:29.321Z,12.74
2016-03-15T05:01:29.325Z,12.45
2016-03-15T05:02:29.327Z,12.16
2016-03-15T05:03:29.344Z,12.54
2016-03-15T05:04:29.348Z,12.35
2016-03-15T05:05:29.350Z,12.45
2016-03-15T05:06:29.353Z,12.16
2016-03-15T05:07:29.372Z,12.26
2016-03-15T05:08:29.374Z,12.54
2016-03-15T05:09:29.377Z,12.54
2016-03-15T05:10:29.380Z,12.64
2016-03-15T05:11:29.382Z,12.54
2016-03-15T05:12:29.401Z,12.54
2016-03-15T05:13:29.404Z,12.26
2016-03-15T05:14:29.406Z,12.35
2016-03-15T05:15:29.424Z,12.54
2016-03-15T05:16:29.427Z,12.16
2016-03-15T05:17:29.414Z,12.26
2016-03-15T05:18:29.432Z,12.26
2016-03-15T05:19:29.451Z,12.35
2016-03-15T05:20:29.437Z,12.35
2016-03-15T05:21:29.440Z,12.26
2016-03-15T05:22:29.459Z,12.16
2016-03-15T05:23:29.461Z,12.26
2016-03-15T05:24:29.480Z,12.06
2016-03-15T05:25:29.467Z,12.26
2016-03-15T05:26:29.484Z,12.16
2016-03-15T05:27:29.488Z,12.06
2016-03-15T05:28:29.490Z,12.26
2016-03-15T05:29:29.509Z,12.16
2016-03-15T05:30:29.511Z,12.26
2016-03-15T05:31:29.514Z,12.45
2016-03-15T05:32:29.517Z,12.35
2016-03-15T05:33:29.536Z,12.16
2016-03-15T05:34:29.522Z,12.35
2016-03-15T05:35:29.556Z,12.64
2016-03-15T05:36:29.559Z,12.54
2016-03-15T05:37:29.561Z,12.16
2016-03-15T05:38:29.549Z,12.54
2016-03-15T05:39:29.551Z,12.54
2016-03-15T05:40:29.569Z,12.54
2016-03-15T05:41:29.572Z,12.45
2016-03-15T05:42:29.575Z,12.26
2016-03-15T05:43:29.593Z,12.16
2016-03-15T05:44:29.596Z,12.16
2016-03-15T05:45:29.615Z,12.26
2016-03-15T05:46:29.617Z,12.35
2016-03-15T05:47:29.604Z,12.16
2016-03-15T05:48:29.606Z,12.55
2016-03-15T05:49:29.626Z,12.26
2016-03-15T05:50:29.612Z,12.16
2016-03-15T05:51:29.631Z,12.16
2016-03-15T05:52:29.634Z,12.35
2016-03-15T05:53:29.636Z,12.35
2016-03-15T05:54:29.654Z,12.16
2016-03-15T05:55:29.657Z,12.35
2016-03-15T05:56:29.659Z,12.35
2016-03-15T05:57:29.662Z,12.16
2016-03-15T05:58:29.681Z,12.16
2016-03-15T05:59:29.683Z,12.35
2016-03-15T06:00:29.686Z,12.16
2016-03-15T06:01:29.689Z,12.54
2016-03-15T06:02:29.706Z,12.16
2016-03-15T06:03:29.709Z,12.16
2016-03-15T06:04:29.712Z,12.06
2016-03-15T06:05:29.730Z,12.35
2016-03-15T06:06:29.749Z,12.45
2016-03-15T06:07:29.730Z,12.35
2016-03-15T06:08:29.717Z,12.35
2016-03-15T06:09:29.721Z,12.45
2016-03-15T06:10:29.708Z,12.26
2016-03-15T06:11:29.695Z,12.26
2016-03-15T06:12:29.687Z,12.35
2016-03-15T06:13:29.715Z,12.45
2016-03-15T06:14:29.681Z,12.45
2016-03-15T06:15:29.678Z,12.55
2016-03-15T06:16:29.690Z,12.45
2016-03-15T06:17:29.690Z,12.55
2016-03-15T06:18:29.690Z,12.54
2016-03-15T06:19:29.690Z,12.26
2016-03-15T06:20:29.706Z,12.26
2016-03-15T06:21:29.707Z,12.35
2016-03-15T06:22:29.708Z,12.35
2016-03-15T06:23:29.709Z,12.16
2016-03-15T06:24:29.728Z,12.26
2016-03-15T06:25:29.729Z,12.26
2016-03-15T06:26:29.731Z,12.26
2016-03-15T06:27:29.734Z,12.26
2016-03-15T06:28:29.736Z,12.64
2016-03-15T06:29:29.754Z,12.54
2016-03-15T06:30:29.757Z,12.26
2016-03-15T06:31:29.759Z,12.26
2016-03-15T06:32:29.762Z,12.54
2016-03-15T06:33:29.765Z,12.45
2016-03-15T06:34:29.783Z,12.54
2016-03-15T06:35:29.787Z,12.26
2016-03-15T06:36:29.789Z,12.35
2016-03-15T06:37:29.792Z,12.45
2016-03-15T06:38:29.809Z,12.06
2016-03-15T06:39:29.812Z,12.06
2016-03-15T06:40:29.814Z,12.45
2016-03-15T06:41:29.833Z,12.07
2016-03-15T06:42:29.836Z,12.26
2016-03-15T06:43:29.838Z,12.35
2016-03-15T06:44:29.842Z,12.45
2016-03-15T06:45:29.860Z,12.54
2016-03-15T06:46:29.847Z,12.54
2016-03-15T06:47:29.865Z,12.26
2016-03-15T06:48:29.868Z,12.54
2016-03-15T06:49:29.871Z,12.26
2016-03-15T06:50:29.888Z,12.16
2016-03-15T06:51:29.876Z,12.26
2016-03-15T06:52:29.909Z,12.54
2016-03-15T06:53:29.959Z,12.55
2016-03-15T06:54:29.915Z,12.36
2016-03-15T06:55:29.918Z,12.16
2016-03-15T06:56:29.920Z,12.16
2016-03-15T06:57:29.939Z,12.45
2016-03-15T06:58:29.926Z,12.07
2016-03-15T06:59:29.944Z,12.35
2016-03-15T07:00:29.931Z,12.45
2016-03-15T07:01:29.965Z,12.36
2016-03-15T07:02:29.953Z,12.36
2016-03-15T07:03:29.971Z,12.07
2016-03-15T07:04:29.973Z,12.06
2016-03-15T07:05:29.976Z,12.16
2016-03-15T07:06:30.026Z,12.26
2016-03-15T07:07:29.985Z,12.26
2016-03-15T07:08:30.004Z,12.45
2016-03-15T07:09:30.007Z,12.35
2016-03-15T07:10:30.009Z,12.26
2016-03-15T07:11:30.012Z,12.16
2016-03-15T07:12:30.030Z,12.36
2016-03-15T07:13:30.032Z,12.26
2016-03-15T07:14:30.035Z,12.35
2016-03-15T07:15:30.038Z,12.35
2016-03-15T07:16:30.041Z,12.16
2016-03-15T07:17:30.059Z,12.45
2016-03-15T07:18:30.062Z,12.16
2016-03-15T07:19:30.065Z,12.45
2016-03-15T07:20:30.067Z,12.36
2016-03-15T07:21:30.070Z,12.16
2016-03-15T07:22:30.088Z,12.36
2016-03-15T07:23:30.091Z,11.87
2016-03-15T07:24:30.109Z,11.68
2016-03-15T07:25:30.112Z,11.49
2016-03-15T07:26:30.114Z,11.3
2016-03-15T07:27:30.117Z,11.49
2016-03-15T07:28:30.136Z,11.3
2016-03-15T07:29:30.138Z,10.92
2016-03-15T07:30:30.125Z,11.3
2016-03-15T07:31:30.144Z,11.21
2016-03-15T07:32:30.146Z,10.92
2016-03-15T07:33:30.164Z,10.44
2016-03-15T07:34:30.167Z,10.63
2016-03-15T07:35:30.169Z,10.44
2016-03-15T07:36:30.189Z,10.25
2016-03-15T07:37:30.191Z,10.25
2016-03-15T07:38:30.193Z,10.05
2016-03-15T07:39:30.213Z,10.06
2016-03-15T07:40:30.199Z,10.16
2016-03-15T07:41:30.217Z,10.35
2016-03-15T07:42:30.220Z,9.77
2016-03-15T07:43:30.238Z,9.77
2016-03-15T07:44:30.240Z,9.77
2016-03-15T07:45:30.244Z,9.86
2016-03-15T07:46:30.246Z,9.96
2016-03-15T07:47:30.248Z,9.96
2016-03-15T07:48:30.268Z,9.96
2016-03-15T07:49:30.270Z,9.67
2016-03-15T07:50:30.273Z,10.16
2016-03-15T07:51:30.275Z,9.58
2016-03-15T07:52:30.294Z,9.86
2016-03-15T07:53:30.297Z,9.96
2016-03-15T07:54:30.300Z,9.77
2016-03-15T07:55:30.317Z,9.77
2016-03-15T07:56:30.320Z,10.06
2016-03-15T07:57:30.338Z,9.96
2016-03-15T07:58:30.341Z,9.86
2016-03-15T07:59:30.344Z,9.86
2016-03-15T08:00:30.346Z,10.06
2016-03-15T08:01:30.350Z,9.58
2016-03-15T08:02:30.367Z,9.58
2016-03-15T08:03:30.370Z,9.39
2016-03-15T08:04:30.372Z,9.48
2016-03-15T08:05:30.375Z,9.48
2016-03-15T08:06:30.378Z,9.48
2016-03-15T08:07:30.396Z,9.19
2016-03-15T08:08:30.399Z,9.48
2016-03-15T08:09:30.417Z,9.58
2016-03-15T08:10:30.436Z,9.58
2016-03-15T08:11:30.438Z,9.39
2016-03-15T08:12:30.441Z,9.48
2016-03-15T08:13:30.444Z,9.48
2016-03-15T08:14:30.446Z,9.48
2016-03-15T08:15:30.449Z,9.58
2016-03-15T08:16:30.468Z,9.48
2016-03-15T08:17:30.486Z,9.39
2016-03-15T08:18:30.473Z,9.39
2016-03-15T08:19:30.492Z,9.58
2016-03-15T08:20:30.494Z,9.39
2016-03-15T08:21:30.498Z,9.67
2016-03-15T08:22:30.515Z,9.97
2016-03-15T08:23:30.518Z,9.87
2016-03-15T08:24:30.521Z,9.86
2016-03-15T08:25:30.539Z,9.86
2016-03-15T08:26:30.541Z,9.87
2016-03-15T08:27:30.559Z,9.87
2016-03-15T08:28:30.562Z,9.67
2016-03-15T08:29:30.564Z,9.87
2016-03-15T08:30:30.568Z,9.87
2016-03-15T08:31:30.586Z,9.77
2016-03-15T08:32:30.588Z,9.19
2016-03-15T08:33:30.592Z,9
2016-03-15T08:34:30.594Z,8.91
2016-03-15T08:35:30.612Z,8.72
2016-03-15T08:36:30.631Z,8.81
2016-03-15T08:37:30.633Z,8.81
2016-03-15T08:38:30.636Z,8.72
2016-03-15T08:39:30.639Z,9
2016-03-15T08:40:30.657Z,9.48
2016-03-15T08:41:30.660Z,9.3
2016-03-15T08:42:30.663Z,9.58
2016-03-15T08:43:30.665Z,10.06
2016-03-15T08:44:30.684Z,9.87
2016-03-15T08:45:30.687Z,9.77
2016-03-15T08:46:30.689Z,9.67
2016-03-15T08:47:30.707Z,9.87
2016-03-15T08:48:30.710Z,10.06
2016-03-15T08:49:30.729Z,9.87
2016-03-15T08:50:30.732Z,9.77
2016-03-15T08:51:30.749Z,10.35
2016-03-15T08:52:30.751Z,9.96
2016-03-15T08:53:30.754Z,10.06
2016-03-15T08:54:30.757Z,10.06
2016-03-15T08:55:30.775Z,9.86
2016-03-15T08:56:30.779Z,9.77
2016-03-15T08:57:30.781Z,10.35
2016-03-15T08:58:30.799Z,10.06
2016-03-15T08:59:30.802Z,10.16
2016-03-15T09:00:30.805Z,10.06
2016-03-15T09:01:30.808Z,9.97
2016-03-15T09:02:30.825Z,9.97
2016-03-15T09:03:30.828Z,10.16
2016-03-15T09:04:30.831Z,9.96
2016-03-15T09:05:30.834Z,9.77
2016-03-15T09:06:30.836Z,10.06
2016-03-15T09:07:30.855Z,10.35
2016-03-15T09:08:30.858Z,10.25
2016-03-15T09:09:30.876Z,9.96
2016-03-15T09:10:30.878Z,9.96
2016-03-15T09:11:30.882Z,10.44
2016-03-15T09:12:30.884Z,10.44
2016-03-15T09:13:30.902Z,10.74
2016-03-15T09:14:30.905Z,10.54
2016-03-15T09:15:30.923Z,10.44
2016-03-15T09:16:30.926Z,10.35
2016-03-15T09:17:30.929Z,10.25
2016-03-15T09:18:30.946Z,10.83
2016-03-15T09:19:30.934Z,10.35
2016-03-15T09:20:30.952Z,10.35
2016-03-15T09:21:30.954Z,10.44
2016-03-15T09:22:30.958Z,10.54
2016-03-15T09:23:30.976Z,10.64
2016-03-15T09:24:30.978Z,10.55
2016-03-15T09:25:30.982Z,10.83
2016-03-15T09:26:30.984Z,10.55
2016-03-15T09:27:31.002Z,10.45
2016-03-15T09:28:31.005Z,11.03
2016-03-15T09:29:31.023Z,10.45
2016-03-15T09:30:31.025Z,10.74
2016-03-15T09:31:31.045Z,10.94
2016-03-15T09:32:31.047Z,10.64
2016-03-15T09:33:31.049Z,10.55
2016-03-15T09:34:31.053Z,10.45
2016-03-15T09:35:31.055Z,11.03
2016-03-15T09:36:31.057Z,11.03
2016-03-15T09:37:31.061Z,10.74
2016-03-15T09:38:31.079Z,10.93
2016-03-15T09:39:31.082Z,10.54
2016-03-15T09:40:31.100Z,10.74
2016-03-15T09:41:31.102Z,10.83
2016-03-15T09:42:31.105Z,11.03
2016-03-15T09:43:31.108Z,10.64
2016-03-15T09:44:31.126Z,10.45
2016-03-15T09:45:31.129Z,10.45
2016-03-15T09:46:31.146Z,10.55
2016-03-15T09:47:31.150Z,10.55
2016-03-15T09:48:31.168Z,10.45
2016-03-15T09:49:31.154Z,10.35
2016-03-15T09:50:31.174Z,10.54
2016-03-15T09:51:31.176Z,10.35
2016-03-15T09:52:31.178Z,10.64
2016-03-15T09:53:31.198Z,10.93
2016-03-15T09:54:31.200Z,10.45
2016-03-15T09:55:31.218Z,10.55
2016-03-15T09:56:31.221Z,10.94
2016-03-15T09:57:31.223Z,10.45
2016-03-15T09:58:31.226Z,10.55
2016-03-15T09:59:31.229Z,10.94
2016-03-15T10:00:31.231Z,11.13
2016-03-15T10:01:31.250Z,10.55
2016-03-15T10:02:31.253Z,10.55
2016-03-15T10:03:31.271Z,10.94
2016-03-15T10:04:31.274Z,10.84
2016-03-15T10:05:31.277Z,10.84
2016-03-15T10:06:31.294Z,10.84
2016-03-15T10:07:31.297Z,10.93
2016-03-15T10:08:31.316Z,11.03
2016-03-15T10:09:31.307Z,10.74
2016-03-15T10:10:31.310Z,10.74
2016-03-15T10:11:31.313Z,10.94
2016-03-15T10:12:31.332Z,10.84
2016-03-15T10:13:31.334Z,10.74
2016-03-15T10:14:31.337Z,10.74
2016-03-15T10:15:31.355Z,11.42
2016-03-15T10:16:31.357Z,11.42
2016-03-15T10:17:31.360Z,11.03
2016-03-15T10:18:31.363Z,10.84
2016-03-15T10:19:31.381Z,10.94
2016-03-15T10:20:31.384Z,11.03
2016-03-15T10:21:31.403Z,11.22
2016-03-15T10:22:31.405Z,11.22
2016-03-15T10:23:31.408Z,11.22
2016-03-15T10:24:31.442Z,11.03
2016-03-15T10:25:31.429Z,10.94
2016-03-15T10:26:31.431Z,11.13
2016-03-15T10:27:31.434Z,11.03
2016-03-15T10:28:31.437Z,11.03
2016-03-15T10:29:31.455Z,10.94
2016-03-15T10:30:31.458Z,11.42
2016-03-15T10:31:31.461Z,11.32
2016-03-15T10:32:31.478Z,11.22
2016-03-15T10:33:31.481Z,11.22
2016-03-15T10:34:31.484Z,11.22
2016-03-15T10:35:31.486Z,11.42
2016-03-15T10:36:31.489Z,11.22
2016-03-15T10:37:31.539Z,11.22
2016-03-15T10:38:31.526Z,11.22
2016-03-15T10:39:31.529Z,11.22
2016-03-15T10:40:31.532Z,10.94
2016-03-15T10:41:31.535Z,11.32
2016-03-15T10:42:31.552Z,11.13
2016-03-15T10:43:31.555Z,11.03
2016-03-15T10:44:31.621Z,11.03
2016-03-15T10:45:31.576Z,11.22
2016-03-15T10:46:31.579Z,11.13
2016-03-15T10:47:31.598Z,11.03
2016-03-15T10:48:31.584Z,11.03
2016-03-15T10:49:31.619Z,11.13
2016-03-15T10:50:31.606Z,10.94
2016-03-15T10:51:31.623Z,11.03
2016-03-15T10:52:31.626Z,11.03
2016-03-15T10:53:31.629Z,11.13
2016-03-15T10:54:31.662Z,11.03
2016-03-15T10:55:31.650Z,11.22
2016-03-15T10:56:31.653Z,11.22
2016-03-15T10:57:31.656Z,11.13
2016-03-15T10:58:31.673Z,11.52
2016-03-15T10:59:31.676Z,11.03
2016-03-15T11:00:31.679Z,11.03
2016-03-15T11:01:31.713Z,11.22
2016-03-15T11:02:31.700Z,11.13
2016-03-15T11:03:31.702Z,11.32
2016-03-15T11:04:31.722Z,11.13
2016-03-15T11:05:31.709Z,11.32
2016-03-15T11:06:31.727Z,11.52
2016-03-15T11:07:31.730Z,11.03
2016-03-15T11:08:31.732Z,11.42
2016-03-15T11:09:31.750Z,11.13
2016-03-15T11:10:31.784Z,11.41
2016-03-15T11:11:31.755Z,11.32
2016-03-15T11:12:31.774Z,11.22
2016-03-15T11:13:31.777Z,11.22
2016-03-15T11:14:31.780Z,10.94
2016-03-15T11:15:31.798Z,11.42
2016-03-15T11:16:31.800Z,11.32
2016-03-15T11:17:31.818Z,11.22
2016-03-15T11:18:31.806Z,11.32
2016-03-15T11:19:31.823Z,11.41
2016-03-15T11:20:31.827Z,11.42
2016-03-15T11:21:31.845Z,11.32
2016-03-15T11:22:31.832Z,11.32
2016-03-15T11:23:31.851Z,11.51
2016-03-15T11:24:31.884Z,11.52
2016-03-15T11:25:31.856Z,11.32
2016-03-15T11:26:31.873Z,11.61
2016-03-15T11:27:31.892Z,11.51
2016-03-15T11:28:31.879Z,11.22
2016-03-15T11:29:31.882Z,11.42
2016-03-15T11:30:31.900Z,11.41
2016-03-15T11:31:31.903Z,11.32
2016-03-15T11:32:31.906Z,12.19
2016-03-15T11:33:31.924Z,11.9
2016-03-15T11:34:31.927Z,11.8
2016-03-15T11:35:31.961Z,11.8
2016-03-15T11:36:31.947Z,11.32
2016-03-15T11:37:31.951Z,11.61
2016-03-15T11:38:31.953Z,11.71
2016-03-15T11:39:31.956Z,11.52
2016-03-15T11:40:31.975Z,11.32
2016-03-15T11:41:31.993Z,11.32
2016-03-15T11:42:31.996Z,11.61
2016-03-15T11:43:31.998Z,11.52
2016-03-15T11:44:32.001Z,11.61
2016-03-15T11:45:32.019Z,11.9
2016-03-15T11:46:32.006Z,11.9
2016-03-15T11:47:32.024Z,11.9
2016-03-15T11:48:32.027Z,12.29
2016-03-15T11:49:32.045Z,11.71
2016-03-15T11:50:32.032Z,11.9
2016-03-15T11:51:32.051Z,12.48
2016-03-15T11:52:32.053Z,12
2016-03-15T11:53:32.072Z,11.9
2016-03-15T11:54:32.059Z,12.19
2016-03-15T11:55:32.076Z,12.48
2016-03-15T11:56:32.080Z,12.19
2016-03-15T11:57:32.082Z,12.29
2016-03-15T11:58:32.100Z,12.39
2016-03-15T11:59:32.103Z,12.48
2016-03-15T12:00:32.122Z,12.29
2016-03-15T12:01:32.125Z,12.48
2016-03-15T12:02:32.127Z,12.68
2016-03-15T12:03:32.130Z,12.58
2016-03-15T12:04:32.148Z,12.39
2016-03-15T12:05:32.150Z,12.39
2016-03-15T12:06:32.153Z,12.39
2016-03-15T12:07:32.156Z,12.97
2016-03-15T12:08:32.174Z,12.87
2016-03-15T12:09:32.022Z,12.87
2016-03-15T12:10:32.180Z,12.77
2016-03-15T12:11:32.182Z,12.68
2016-03-15T12:12:32.202Z,12.58
2016-03-15T12:13:32.204Z,12.58
2016-03-15T12:14:32.206Z,12.48
2016-03-15T12:15:32.224Z,13.16
2016-03-15T12:16:32.227Z,13.16
2016-03-15T12:17:32.246Z,13.07
2016-03-15T12:18:32.232Z,13.26
2016-03-15T12:19:32.235Z,13.16
2016-03-15T12:20:32.254Z,13.26
2016-03-15T12:21:32.271Z,13.26
2016-03-15T12:22:32.274Z,12.87
2016-03-15T12:23:32.277Z,13.07
2016-03-15T12:24:32.279Z,13.16
2016-03-15T12:25:32.283Z,13.35
2016-03-15T12:26:32.301Z,13.35
2016-03-15T12:27:32.303Z,13.06
2016-03-15T12:28:32.307Z,13.16
2016-03-15T12:29:32.325Z,13.07
2016-03-15T12:30:32.327Z,13.26
2016-03-15T12:31:32.331Z,13.35
2016-03-15T12:32:32.333Z,13.45
2016-03-15T12:33:32.351Z,13.35
2016-03-15T12:34:32.353Z,13.16
2016-03-15T12:35:32.388Z,12.97
2016-03-15T12:36:32.391Z,12.87
2016-03-15T12:37:32.377Z,12.87
2016-03-15T12:38:32.396Z,12.58
2016-03-15T12:39:32.399Z,12.87
2016-03-15T12:40:32.385Z,13.06
2016-03-15T12:41:32.405Z,13.07
2016-03-15T12:42:32.407Z,13.35
2016-03-15T12:43:32.409Z,13.35
2016-03-15T12:44:32.428Z,13.25
2016-03-15T12:45:32.430Z,13.06
2016-03-15T12:46:32.448Z,13.45
2016-03-15T12:47:32.452Z,13.35
2016-03-15T12:48:32.454Z,13.35
2016-03-15T12:49:32.457Z,13.45
2016-03-15T12:50:32.460Z,13.15
2016-03-15T12:51:32.477Z,13.35
2016-03-15T12:52:32.480Z,12.96
2016-03-15T12:53:32.482Z,13.25
2016-03-15T12:54:32.485Z,13.35
2016-03-15T12:55:32.503Z,13.15
2016-03-15T12:56:32.507Z,13.15